createdAt,value
2023-03-05T00:00:46.815Z,4.07
2023-03-05T00:02:49.271Z,4.00
2023-03-05T00:04:51.788Z,4.05
2023-03-05T00:06:55.886Z,4.70
2023-03-05T00:08:58.748Z,3.75
2023-03-05T00:11:04.301Z,4.03
2023-03-05T00:13:06.642Z,4.70
2023-03-05T00:15:09.916Z,4.13
2023-03-05T00:17:12.164Z,4.20
2023-03-05T00:19:14.600Z,4.25
2023-03-05T00:21:22.392Z,4.88
2023-03-05T00:23:24.639Z,4.70
2023-03-05T00:25:27.193Z,4.20
2023-03-05T00:27:29.468Z,5.05
2023-03-05T00:29:31.905Z,4.57
2023-03-05T00:31:35.949Z,4.32
2023-03-05T00:33:38.263Z,5.47
2023-03-05T00:35:42.437Z,4.68
2023-03-05T00:37:44.799Z,4.65
2023-03-05T00:39:47.198Z,4.93
2023-03-05T00:41:50.087Z,4.18
2023-03-05T00:43:52.491Z,4.00
2023-03-05T00:45:54.931Z,4.65
2023-03-05T00:47:57.279Z,4.97
2023-03-05T00:50:00.233Z,4.78
2023-03-05T00:52:02.427Z,4.57
2023-03-05T00:54:06.093Z,5.10
2023-03-05T00:56:08.476Z,4.57
2023-03-05T00:58:12.192Z,4.90
2023-03-05T01:00:17.299Z,4.78
2023-03-05T01:02:19.722Z,5.15
2023-03-05T01:04:22.085Z,5.00
2023-03-05T01:06:24.432Z,4.38
2023-03-05T01:08:27.211Z,4.32
2023-03-05T01:10:30.578Z,4.25
2023-03-05T01:12:32.868Z,5.10
2023-03-05T01:14:36.157Z,4.55
2023-03-05T01:16:38.469Z,4.90
2023-03-05T01:18:41.427Z,4.80
2023-03-05T01:20:43.836Z,5.15
2023-03-05T01:22:46.107Z,4.97
2023-03-05T01:24:48.384Z,4.63
2023-03-05T01:26:51.109Z,5.20
2023-03-05T01:28:53.461Z,5.40
2023-03-05T01:30:55.859Z,5.15
2023-03-05T01:32:58.148Z,4.75
2023-03-05T01:35:02.453Z,5.13
2023-03-05T01:37:05.001Z,5.45
2023-03-05T01:39:07.244Z,5.35
2023-03-05T01:41:10.549Z,5.78
2023-03-05T01:43:13.742Z,5.88
2023-03-05T01:45:18.748Z,5.05
2023-03-05T01:47:21.092Z,5.68
2023-03-05T01:49:29.750Z,5.40
2023-03-05T01:51:37.091Z,5.63
2023-03-05T01:53:40.363Z,5.93
2023-03-05T01:55:42.624Z,5.75
2023-03-05T01:57:49.934Z,5.38
2023-03-05T01:59:58.437Z,5.53
2023-03-05T02:02:01.189Z,5.63
2023-03-05T02:04:04.041Z,5.50
2023-03-05T02:06:06.535Z,5.68
2023-03-05T02:08:11.708Z,5.85
2023-03-05T02:10:20.835Z,4.97
2023-03-05T02:12:23.608Z,5.82
2023-03-05T02:14:27.393Z,5.60
2023-03-05T02:16:37.237Z,6.28
2023-03-05T02:18:39.532Z,6.05
2023-03-05T02:20:45.249Z,6.32
2023-03-05T02:22:47.794Z,6.68
2023-03-05T02:24:50.638Z,6.50
2023-03-05T02:26:52.997Z,5.70
2023-03-05T02:29:01.481Z,6.25
2023-03-05T02:31:10.289Z,6.30
2023-03-05T02:33:15.407Z,6.00
2023-03-05T02:35:17.915Z,6.60
2023-03-05T02:37:20.348Z,6.63
2023-03-05T02:39:22.595Z,5.88
2023-03-05T02:41:25.341Z,6.13
2023-03-05T02:43:27.849Z,6.28
2023-03-05T02:45:30.424Z,7.25
2023-03-05T02:47:33.418Z,6.40
2023-03-05T02:49:35.865Z,6.13
2023-03-05T02:51:38.131Z,7.03
2023-03-05T02:53:40.456Z,6.35
2023-03-05T02:55:42.874Z,6.00
2023-03-05T02:57:45.432Z,6.63
2023-03-05T02:59:47.850Z,6.10
2023-03-05T03:01:50.152Z,7.10
2023-03-05T03:03:52.311Z,7.18
2023-03-05T03:05:54.644Z,6.63
2023-03-05T03:07:56.864Z,6.75
2023-03-05T03:09:59.094Z,6.63
2023-03-05T03:12:01.374Z,6.60
2023-03-05T03:14:03.833Z,6.50
2023-03-05T03:16:09.917Z,5.90
2023-03-05T03:18:12.190Z,6.07
2023-03-05T03:20:16.918Z,6.15
2023-03-05T03:22:19.071Z,6.78
2023-03-05T03:24:22.115Z,6.88
2023-03-05T03:26:25.077Z,7.35
2023-03-05T03:28:27.409Z,6.65
2023-03-05T03:30:29.906Z,6.88
2023-03-05T03:32:33.301Z,7.00
2023-03-05T03:34:35.625Z,7.75
2023-03-05T03:36:38.086Z,6.97
2023-03-05T03:38:40.496Z,6.97
2023-03-05T03:40:42.860Z,7.65
2023-03-05T03:42:45.297Z,7.03
2023-03-05T03:44:48.703Z,6.93
2023-03-05T03:46:51.887Z,7.03
2023-03-05T03:48:54.387Z,7.70
2023-03-05T03:50:56.594Z,7.00
2023-03-05T03:52:59.188Z,7.82
2023-03-05T03:55:02.404Z,7.47
2023-03-05T03:57:04.944Z,7.53
2023-03-05T03:59:07.656Z,7.97
2023-03-05T04:01:10.219Z,7.95
2023-03-05T04:03:12.632Z,7.78
2023-03-05T04:05:15.053Z,7.15
2023-03-05T04:07:17.591Z,7.70
2023-03-05T04:09:19.832Z,7.30
2023-03-05T04:11:22.707Z,7.57
2023-03-05T04:13:24.820Z,8.23
2023-03-05T04:15:27.105Z,8.60
2023-03-05T04:17:29.218Z,7.60
2023-03-05T04:19:31.381Z,8.05
2023-03-05T04:21:33.460Z,7.57
2023-03-05T04:23:35.792Z,7.30
2023-03-05T04:25:37.967Z,7.53
2023-03-05T04:27:41.411Z,8.10
2023-03-05T04:29:43.457Z,8.13
2023-03-05T04:31:45.505Z,8.02
2023-03-05T04:33:47.593Z,6.57
2023-03-05T04:35:51.200Z,7.30
2023-03-05T04:37:53.460Z,7.32
2023-03-05T04:39:55.760Z,7.78
2023-03-05T04:41:57.770Z,8.20
2023-03-05T04:43:59.804Z,8.02
2023-03-05T04:46:02.009Z,7.25
2023-03-05T04:48:04.541Z,7.28
2023-03-05T04:50:07.622Z,7.75
2023-03-05T04:52:12.436Z,7.10
2023-03-05T04:54:14.485Z,6.75
2023-03-05T04:56:16.855Z,6.60
2023-03-05T04:58:20.833Z,7.43
2023-03-05T05:00:23.282Z,7.45
2023-03-05T05:02:25.642Z,7.65
2023-03-05T05:04:27.821Z,7.38
2023-03-05T05:06:29.913Z,8.45
2023-03-05T05:08:32.136Z,6.38
2023-03-05T05:10:34.449Z,7.70
2023-03-05T05:12:36.986Z,7.78
2023-03-05T05:14:39.225Z,7.45
2023-03-05T05:16:41.405Z,7.72
2023-03-05T05:18:43.668Z,6.75
2023-03-05T05:20:45.698Z,6.65
2023-03-05T05:22:47.742Z,8.40
2023-03-05T05:24:49.905Z,7.78
2023-03-05T05:26:54.416Z,7.18
2023-03-05T05:28:56.455Z,8.07
2023-03-05T05:30:58.735Z,6.50
2023-03-05T05:33:00.907Z,7.28
2023-03-05T05:35:04.064Z,6.60
2023-03-05T05:37:06.072Z,7.53
2023-03-05T05:39:08.265Z,7.32
2023-03-05T05:41:13.855Z,7.30
2023-03-05T05:43:15.927Z,7.72
2023-03-05T05:45:18.173Z,6.75
2023-03-05T05:47:20.394Z,7.25
2023-03-05T05:49:22.476Z,7.03
2023-03-05T05:51:25.037Z,6.68
2023-03-05T05:53:27.205Z,7.65
2023-03-05T05:55:29.235Z,6.45
2023-03-05T05:57:31.802Z,6.75
2023-03-05T05:59:34.052Z,7.18
2023-03-05T06:01:36.153Z,7.28
2023-03-05T06:03:38.232Z,7.30
2023-03-05T06:05:43.348Z,6.75
2023-03-05T06:07:45.545Z,7.03
2023-03-05T06:09:47.628Z,6.88
2023-03-05T06:11:50.603Z,7.03
2023-03-05T06:13:52.857Z,6.30
2023-03-05T06:15:58.839Z,7.20
2023-03-05T06:18:01.319Z,6.75
2023-03-05T06:20:04.587Z,6.10
2023-03-05T06:22:06.616Z,6.20
2023-03-05T06:24:08.821Z,6.40
2023-03-05T06:26:14.070Z,6.88
2023-03-05T06:28:18.434Z,6.78
2023-03-05T06:30:20.612Z,6.20
2023-03-05T06:32:23.447Z,6.30
2023-03-05T06:34:25.618Z,6.70
2023-03-05T06:36:28.630Z,5.47
2023-03-05T06:38:30.939Z,6.38
2023-03-05T06:40:33.074Z,6.72
2023-03-05T06:42:35.490Z,6.25
2023-03-05T06:44:40.585Z,6.93
2023-03-05T06:46:42.701Z,6.68
2023-03-05T06:48:45.366Z,6.18
2023-03-05T06:50:47.523Z,6.93
2023-03-05T06:52:50.822Z,6.68
2023-03-05T06:54:55.905Z,6.53
2023-03-05T06:56:58.304Z,6.32
2023-03-05T06:59:00.375Z,7.70
2023-03-05T07:01:05.573Z,6.18
2023-03-05T07:03:07.874Z,6.32
2023-03-05T07:05:10.470Z,6.57
2023-03-05T07:07:12.689Z,6.07
2023-03-05T07:09:16.002Z,5.97
2023-03-05T07:11:20.158Z,7.18
2023-03-05T07:13:22.281Z,6.75
2023-03-05T07:15:24.531Z,6.20
2023-03-05T07:17:26.627Z,6.53
2023-03-05T07:19:28.599Z,6.68
2023-03-05T07:21:33.558Z,7.00
2023-03-05T07:23:36.814Z,7.07
2023-03-05T07:25:39.902Z,6.13
2023-03-05T07:27:41.970Z,6.50
2023-03-05T07:29:44.006Z,7.18
2023-03-05T07:31:46.265Z,5.93
2023-03-05T07:33:51.283Z,7.63
2023-03-05T07:35:53.550Z,6.93
2023-03-05T07:37:56.066Z,7.05
2023-03-05T07:39:58.549Z,6.88
2023-03-05T07:42:00.662Z,6.93
2023-03-05T07:44:03.433Z,7.15
2023-03-05T07:46:07.889Z,7.72
2023-03-05T07:48:16.612Z,7.30
2023-03-05T07:50:18.891Z,7.78
2023-03-05T07:52:20.976Z,6.97
2023-03-05T07:54:23.098Z,7.68
2023-03-05T07:56:32.116Z,7.28
2023-03-05T07:58:34.259Z,6.57
2023-03-05T08:00:36.478Z,7.18
2023-03-05T08:02:38.542Z,7.38
2023-03-05T08:04:42.339Z,7.45
2023-03-05T08:06:44.295Z,7.28
2023-03-05T08:08:46.409Z,7.43
2023-03-05T08:10:48.338Z,8.13
2023-03-05T08:12:50.328Z,7.65
2023-03-05T08:14:52.322Z,7.70
2023-03-05T08:16:54.250Z,7.78
2023-03-05T08:18:57.589Z,8.15
2023-03-05T08:20:59.760Z,9.63
2023-03-05T08:23:03.409Z,8.10
2023-03-05T08:25:07.197Z,8.73
2023-03-05T08:27:09.837Z,9.00
2023-03-05T08:29:11.873Z,9.25
2023-03-05T08:31:16.239Z,9.43
2023-03-05T08:33:18.380Z,9.07
2023-03-05T08:35:21.002Z,8.95
2023-03-05T08:37:22.857Z,9.48
2023-03-05T08:39:24.847Z,10.98
2023-03-05T08:41:26.732Z,9.77
2023-03-05T08:43:28.713Z,9.85
2023-03-05T08:45:30.597Z,10.43
2023-03-05T08:47:32.436Z,10.38
2023-03-05T08:49:34.353Z,10.18
2023-03-05T08:51:36.566Z,9.57
2023-03-05T08:53:39.310Z,11.88
2023-03-05T08:55:43.828Z,11.82
2023-03-05T08:57:45.992Z,12.20
2023-03-05T08:59:50.325Z,11.23
2023-03-05T09:01:52.293Z,11.85
2023-03-05T09:03:54.722Z,13.15
2023-03-05T09:06:01.110Z,12.65
2023-03-05T09:08:04.971Z,12.77
2023-03-05T09:10:10.094Z,11.50
2023-03-05T09:12:13.468Z,12.75
2023-03-05T09:14:15.355Z,12.93
2023-03-05T09:16:18.764Z,12.50
2023-03-05T09:18:22.839Z,12.93
2023-03-05T09:20:24.749Z,13.45
2023-03-05T09:22:26.698Z,13.27
2023-03-05T09:24:28.624Z,13.25
2023-03-05T09:26:31.767Z,13.88
2023-03-05T09:28:33.611Z,14.00
2023-03-05T09:30:36.084Z,13.18
2023-03-05T09:32:38.026Z,12.68
2023-03-05T09:34:39.908Z,13.05
2023-03-05T09:36:41.732Z,14.38
2023-03-05T09:38:43.557Z,14.07
2023-03-05T09:40:48.861Z,13.85
2023-03-05T09:42:51.466Z,13.55
2023-03-05T09:44:56.948Z,13.65
2023-03-05T09:47:05.255Z,13.40
2023-03-05T09:49:11.577Z,13.48
2023-03-05T09:51:21.108Z,14.32
2023-03-05T09:53:34.013Z,13.48
2023-03-05T09:55:41.100Z,11.80
2023-03-05T09:57:48.792Z,13.27
2023-03-05T09:59:58.131Z,13.70
2023-03-05T10:02:05.468Z,12.55
2023-03-05T10:04:12.751Z,13.60
2023-03-05T10:06:20.868Z,13.50
2023-03-05T10:08:31.426Z,13.60
2023-03-05T10:10:40.822Z,13.88
2023-03-05T10:12:46.103Z,14.32
2023-03-05T10:14:49.270Z,14.05
2023-03-05T10:16:54.706Z,13.93
2023-03-05T10:19:00.988Z,13.02
2023-03-05T10:21:06.358Z,13.93
2023-03-05T10:23:09.336Z,14.55
2023-03-05T10:25:15.828Z,15.27
2023-03-05T10:27:27.274Z,14.80
2023-03-05T10:29:33.593Z,15.57
2023-03-05T10:31:38.967Z,14.00
2023-03-05T10:33:45.538Z,16.10
2023-03-05T10:35:50.945Z,15.80
2023-03-05T10:37:59.054Z,15.25
2023-03-05T10:40:12.135Z,15.02
2023-03-05T10:42:17.714Z,15.73
2023-03-05T10:44:29.591Z,15.70
2023-03-05T10:46:35.512Z,16.48
2023-03-05T10:48:43.462Z,15.02
2023-03-05T10:50:50.144Z,15.90
2023-03-05T10:53:06.653Z,15.93
2023-03-05T10:55:13.909Z,14.82
2023-03-05T10:57:21.305Z,13.90
2023-03-05T10:59:23.211Z,14.48
2023-03-05T11:01:28.476Z,13.68
2023-03-05T11:03:36.713Z,13.82
2023-03-05T11:05:39.319Z,13.68
2023-03-05T11:07:41.331Z,13.23
2023-03-05T11:09:53.269Z,13.23
2023-03-05T11:12:01.314Z,12.70
2023-03-05T11:14:04.836Z,12.93
2023-03-05T11:16:15.999Z,11.10
2023-03-05T11:18:24.372Z,12.07
2023-03-05T11:20:28.084Z,12.40
2023-03-05T11:22:37.844Z,11.85
2023-03-05T11:24:41.464Z,12.32
2023-03-05T11:26:48.678Z,12.75
2023-03-05T11:28:54.022Z,12.30
2023-03-05T11:31:00.509Z,11.57
2023-03-05T11:33:10.285Z,11.38
2023-03-05T11:35:31.574Z,11.85
2023-03-05T11:37:33.555Z,11.48
2023-03-05T11:39:38.463Z,10.43
2023-03-05T11:41:47.068Z,11.15
2023-03-05T11:43:51.144Z,11.00
2023-03-05T11:46:01.701Z,11.70
2023-03-05T11:48:13.913Z,10.18
2023-03-05T11:50:21.226Z,10.73
2023-03-05T11:52:31.119Z,10.07
2023-03-05T11:54:42.908Z,10.93
2023-03-05T11:56:47.471Z,10.60
2023-03-05T11:58:53.354Z,9.65
2023-03-05T12:00:57.987Z,9.80
2023-03-05T12:03:04.532Z,9.45
2023-03-05T12:05:07.995Z,7.68
2023-03-05T12:07:14.219Z,9.45
2023-03-05T12:09:22.445Z,9.05
2023-03-05T12:11:30.665Z,9.60
2023-03-05T12:13:43.045Z,9.00
2023-03-05T12:15:56.589Z,9.85
2023-03-05T12:18:08.673Z,9.32
2023-03-05T12:20:21.131Z,9.95
2023-03-05T12:22:26.123Z,9.32
2023-03-05T12:24:31.202Z,8.60
2023-03-05T12:26:39.489Z,8.32
2023-03-05T12:28:53.338Z,8.82
2023-03-05T12:31:01.411Z,9.15
2023-03-05T12:33:06.049Z,9.32
2023-03-05T12:35:14.216Z,9.18
2023-03-05T12:37:22.272Z,9.05
2023-03-05T12:39:42.582Z,8.98
2023-03-05T12:41:44.646Z,9.10
2023-03-05T12:43:46.598Z,9.27
2023-03-05T12:45:48.523Z,9.32
2023-03-05T12:47:56.717Z,9.65
2023-03-05T12:50:02.026Z,10.60
2023-03-05T12:52:05.567Z,10.07
2023-03-05T12:54:14.103Z,9.82
2023-03-05T12:56:20.834Z,9.73
2023-03-05T12:58:32.559Z,9.95
2023-03-05T13:00:43.338Z,9.77
2023-03-05T13:02:46.556Z,8.55
2023-03-05T13:04:53.652Z,8.65
2023-03-05T13:07:00.483Z,9.20
2023-03-05T13:09:07.563Z,8.48
2023-03-05T13:11:19.392Z,8.13
2023-03-05T13:13:22.419Z,8.63
2023-03-05T13:15:26.434Z,8.90
2023-03-05T13:17:31.874Z,8.48
2023-03-05T13:19:36.179Z,8.25
2023-03-05T13:21:38.529Z,8.20
2023-03-05T13:23:49.130Z,7.50
2023-03-05T13:25:57.338Z,7.07
2023-03-05T13:28:05.789Z,8.02
2023-03-05T13:30:22.326Z,7.85
2023-03-05T13:32:29.152Z,7.22
2023-03-05T13:34:46.557Z,7.10
2023-03-05T13:36:55.461Z,6.80
2023-03-05T13:38:57.835Z,7.68
2023-03-05T13:41:05.513Z,7.68
2023-03-05T13:43:12.538Z,7.53
2023-03-05T13:45:20.689Z,6.47
2023-03-05T13:47:25.290Z,6.82
2023-03-05T13:49:28.970Z,7.28
2023-03-05T13:51:42.640Z,8.13
2023-03-05T13:53:45.352Z,7.60
2023-03-05T13:55:53.835Z,6.75
2023-03-05T13:57:55.923Z,8.02
2023-03-05T13:59:58.072Z,7.75
2023-03-05T14:02:06.063Z,7.55
2023-03-05T14:04:20.744Z,7.25
2023-03-05T14:06:25.269Z,7.55
2023-03-05T14:08:30.349Z,7.15
2023-03-05T14:10:36.690Z,7.38
2023-03-05T14:12:42.785Z,7.28
2023-03-05T14:14:45.313Z,7.53
2023-03-05T14:16:47.490Z,8.18
2023-03-05T14:18:55.206Z,7.30
2023-03-05T14:21:02.277Z,6.80
2023-03-05T14:23:27.345Z,7.47
2023-03-05T14:25:36.601Z,6.45
2023-03-05T14:27:39.407Z,6.10
2023-03-05T14:29:45.943Z,7.30
2023-03-05T14:31:52.344Z,7.38
2023-03-05T14:33:59.613Z,7.72
2023-03-05T14:36:04.997Z,7.40
2023-03-05T14:38:09.034Z,6.72
2023-03-05T14:40:12.770Z,8.20
2023-03-05T14:42:28.123Z,7.53
2023-03-05T14:44:30.012Z,7.00
2023-03-05T14:46:32.215Z,7.40
2023-03-05T14:48:34.770Z,6.93
2023-03-05T14:50:44.891Z,7.30
2023-03-05T14:52:49.445Z,7.53
2023-03-05T14:54:53.762Z,7.45
2023-03-05T14:56:56.677Z,6.65
2023-03-05T14:58:59.299Z,6.85
2023-03-05T15:01:02.478Z,7.25
2023-03-05T15:03:07.035Z,7.47
2023-03-05T15:05:10.834Z,7.18
2023-03-05T15:07:19.220Z,7.47
2023-03-05T15:09:21.797Z,7.68
2023-03-05T15:11:24.316Z,7.43
2023-03-05T15:13:27.012Z,8.15
2023-03-05T15:15:29.589Z,7.55
2023-03-05T15:17:33.516Z,7.95
2023-03-05T15:19:35.493Z,7.68
2023-03-05T15:21:37.527Z,7.28
2023-03-05T15:23:41.627Z,7.68
2023-03-05T15:25:44.376Z,7.40
2023-03-05T15:27:50.957Z,7.20
2023-03-05T15:29:53.357Z,7.55
2023-03-05T15:31:55.541Z,7.55
2023-03-05T15:33:57.514Z,7.30
2023-03-05T15:36:00.160Z,8.32
2023-03-05T15:38:02.390Z,8.82
2023-03-05T15:40:05.168Z,8.15
2023-03-05T15:42:07.547Z,8.10
2023-03-05T15:44:09.632Z,7.25
2023-03-05T15:46:11.989Z,8.02
2023-03-05T15:48:14.350Z,7.15
2023-03-05T15:50:19.870Z,7.13
2023-03-05T15:52:22.091Z,7.28
2023-03-05T15:54:24.363Z,7.50
2023-03-05T15:56:26.467Z,6.93
2023-03-05T15:58:33.406Z,7.32
2023-03-05T16:00:38.272Z,7.55
2023-03-05T16:02:40.481Z,7.82
2023-03-05T16:04:43.510Z,7.68
2023-03-05T16:06:49.641Z,7.60
2023-03-05T16:08:55.346Z,6.97
2023-03-05T16:10:58.361Z,7.13
2023-03-05T16:13:07.069Z,8.02
2023-03-05T16:15:12.378Z,7.97
2023-03-05T16:17:16.251Z,7.88
2023-03-05T16:19:20.001Z,6.25
2023-03-05T16:21:22.399Z,5.53
2023-03-05T16:23:25.286Z,6.30
2023-03-05T16:25:27.448Z,5.75
2023-03-05T16:27:30.349Z,4.95
2023-03-05T16:29:35.624Z,4.15
2023-03-05T16:31:40.806Z,4.43
2023-03-05T16:33:42.954Z,3.75
2023-03-05T16:35:45.181Z,3.45
2023-03-05T16:37:47.771Z,4.15
2023-03-05T16:39:50.491Z,3.75
2023-03-05T16:41:55.434Z,3.95
2023-03-05T16:43:59.397Z,3.78
2023-03-05T16:46:01.688Z,3.90
2023-03-05T16:48:04.401Z,3.92
2023-03-05T16:50:09.126Z,4.00
2023-03-05T16:52:18.706Z,4.13
2023-03-05T16:54:22.469Z,4.15
2023-03-05T16:56:24.589Z,4.22
2023-03-05T16:58:32.249Z,4.15
2023-03-05T17:00:34.484Z,3.85
2023-03-05T17:02:36.813Z,4.30
2023-03-05T17:04:39.364Z,3.72
2023-03-05T17:06:42.000Z,4.15
2023-03-05T17:08:45.444Z,3.03
2023-03-05T17:10:48.438Z,3.22
2023-03-05T17:12:52.964Z,3.40
2023-03-05T17:14:55.048Z,3.22
2023-03-05T17:16:57.988Z,3.67
2023-03-05T17:19:00.794Z,3.72
2023-03-05T17:21:07.791Z,3.30
2023-03-05T17:23:11.042Z,4.35
2023-03-05T17:25:14.330Z,3.55
2023-03-05T17:27:18.954Z,3.15
2023-03-05T17:29:22.840Z,2.92
2023-03-05T17:31:25.133Z,3.33
2023-03-05T17:33:29.291Z,3.70
2023-03-05T17:35:31.549Z,4.03
2023-03-05T17:37:34.316Z,3.45
2023-03-05T17:39:39.413Z,3.97
2023-03-05T17:41:41.544Z,3.35
2023-03-05T17:43:44.482Z,3.80
2023-03-05T17:45:47.866Z,3.60
2023-03-05T17:47:53.011Z,3.10
2023-03-05T17:49:55.005Z,3.45
2023-03-05T17:51:57.441Z,2.83
2023-03-05T17:53:59.480Z,3.03
2023-03-05T17:56:01.901Z,3.28
2023-03-05T17:58:04.290Z,3.20
2023-03-05T18:00:09.578Z,3.75
2023-03-05T18:02:15.487Z,3.22
2023-03-05T18:04:20.142Z,3.35
2023-03-05T18:06:22.778Z,2.80
2023-03-05T18:08:29.823Z,3.60
2023-03-05T18:10:33.722Z,3.00
2023-03-05T18:12:38.069Z,2.60
2023-03-05T18:14:42.232Z,3.35
2023-03-05T18:16:46.094Z,2.95
2023-03-05T18:18:49.032Z,3.08
2023-03-05T18:20:55.438Z,3.47
2023-03-05T18:23:00.168Z,3.38
2023-03-05T18:25:02.459Z,3.35
2023-03-05T18:27:04.857Z,2.95
2023-03-05T18:29:06.927Z,3.30
2023-03-05T18:31:08.936Z,3.35
2023-03-05T18:33:18.612Z,3.30
2023-03-05T18:35:20.557Z,3.40
2023-03-05T18:37:22.564Z,2.75
2023-03-05T18:39:24.715Z,2.80
2023-03-05T18:41:28.237Z,3.13
2023-03-05T18:43:31.304Z,3.38
2023-03-05T18:45:34.371Z,3.50
2023-03-05T18:47:39.099Z,3.08
2023-03-05T18:49:41.068Z,3.40
2023-03-05T18:51:43.563Z,3.20
2023-03-05T18:53:46.403Z,3.78
2023-03-05T18:55:50.971Z,3.50
2023-03-05T18:57:56.988Z,3.55
2023-03-05T18:59:59.195Z,3.53
2023-03-05T19:02:01.266Z,3.78
2023-03-05T19:04:06.444Z,3.45
2023-03-05T19:06:08.897Z,3.08
2023-03-05T19:08:11.084Z,3.40
2023-03-05T19:10:15.263Z,3.80
2023-03-05T19:12:17.388Z,3.50
2023-03-05T19:14:19.509Z,3.47
2023-03-05T19:16:24.421Z,3.65
2023-03-05T19:18:28.887Z,3.78
2023-03-05T19:20:30.838Z,3.92
2023-03-05T19:22:33.649Z,3.92
2023-03-05T19:24:38.018Z,3.67
2023-03-05T19:26:41.417Z,3.20
2023-03-05T19:28:43.471Z,4.20
2023-03-05T19:30:48.798Z,4.53
2023-03-05T19:32:51.365Z,3.72
2023-03-05T19:34:57.348Z,4.00
2023-03-05T19:36:59.491Z,3.88
2023-03-05T19:39:05.097Z,3.85
2023-03-05T19:41:09.675Z,3.50
2023-03-05T19:43:11.784Z,3.70
2023-03-05T19:45:14.193Z,4.07
2023-03-05T19:47:16.218Z,3.45
2023-03-05T19:49:19.014Z,3.38
2023-03-05T19:51:24.110Z,3.42
2023-03-05T19:53:26.357Z,3.65
2023-03-05T19:55:28.372Z,4.10
2023-03-05T19:57:33.373Z,3.65
2023-03-05T19:59:35.590Z,3.42
2023-03-05T20:01:38.011Z,4.38
2023-03-05T20:03:40.863Z,4.20
2023-03-05T20:05:43.947Z,3.45
2023-03-05T20:07:48.214Z,4.05
2023-03-05T20:09:52.133Z,3.70
2023-03-05T20:11:54.442Z,4.63
2023-03-05T20:13:57.537Z,4.13
2023-03-05T20:16:01.593Z,4.18
2023-03-05T20:18:05.939Z,4.85
2023-03-05T20:20:10.954Z,3.20
2023-03-05T20:22:14.095Z,4.68
2023-03-05T20:24:19.903Z,5.00
2023-03-05T20:26:26.606Z,4.40
2023-03-05T20:28:28.800Z,4.05
2023-03-05T20:30:31.089Z,4.47
2023-03-05T20:32:33.384Z,4.15
2023-03-05T20:34:35.455Z,4.70
2023-03-05T20:36:37.989Z,4.10
2023-03-05T20:38:40.276Z,4.15
2023-03-05T20:40:42.349Z,4.50
2023-03-05T20:42:46.591Z,4.03
2023-03-05T20:44:48.616Z,4.32
2023-03-05T20:47:02.695Z,4.60
2023-03-05T20:49:08.717Z,4.43
2023-03-05T20:51:13.306Z,4.18
2023-03-05T20:53:16.346Z,3.92
2023-03-05T20:55:18.453Z,4.30
2023-03-05T20:57:22.557Z,4.85
2023-03-05T20:59:24.907Z,4.05
2023-03-05T21:01:28.071Z,4.30
2023-03-05T21:03:32.844Z,4.22
2023-03-05T21:05:36.005Z,3.90
2023-03-05T21:07:38.005Z,4.35
2023-03-05T21:09:40.235Z,4.35
2023-03-05T21:11:42.136Z,4.72
2023-03-05T21:13:44.762Z,5.05
2023-03-05T21:15:46.961Z,4.10
2023-03-05T21:17:49.325Z,4.35
2023-03-05T21:19:51.282Z,5.15
2023-03-05T21:21:53.225Z,4.30
2023-03-05T21:23:55.597Z,4.40
2023-03-05T21:25:57.481Z,3.90
2023-03-05T21:28:00.329Z,4.72
2023-03-05T21:30:02.361Z,4.38
2023-03-05T21:32:08.041Z,4.60
2023-03-05T21:34:11.386Z,4.43
2023-03-05T21:36:13.853Z,4.20
2023-03-05T21:38:27.822Z,5.43
2023-03-05T21:40:30.896Z,4.72
2023-03-05T21:42:33.123Z,4.18
2023-03-05T21:44:35.136Z,4.82
2023-03-05T21:46:37.549Z,4.65
2023-03-05T21:48:39.757Z,4.22
2023-03-05T21:50:44.421Z,5.07
2023-03-05T21:52:46.517Z,5.22
2023-03-05T21:54:54.770Z,4.70
2023-03-05T21:56:59.273Z,4.90
2023-03-05T21:59:04.941Z,4.93
2023-03-05T22:01:14.987Z,4.60
2023-03-05T22:03:19.776Z,4.87
2023-03-05T22:05:28.114Z,5.03
2023-03-05T22:07:33.327Z,4.85
2023-03-05T22:09:38.508Z,5.18
2023-03-05T22:11:42.785Z,5.13
2023-03-05T22:13:45.060Z,5.45
2023-03-05T22:15:49.925Z,5.57
2023-03-05T22:17:51.984Z,4.93
2023-03-05T22:19:57.914Z,4.93
2023-03-05T22:22:00.128Z,5.15
2023-03-05T22:24:02.139Z,5.45
2023-03-05T22:26:07.118Z,4.85
2023-03-05T22:28:10.937Z,5.68
2023-03-05T22:30:13.888Z,5.57
2023-03-05T22:32:15.904Z,5.13
2023-03-05T22:34:19.997Z,5.53
2023-03-05T22:36:22.023Z,5.45
2023-03-05T22:38:25.479Z,6.03
2023-03-05T22:40:27.464Z,5.78
2023-03-05T22:42:29.839Z,6.22
2023-03-05T22:44:32.040Z,5.38
2023-03-05T22:46:34.112Z,5.68
2023-03-05T22:48:36.098Z,6.07
2023-03-05T22:50:40.052Z,5.55
2023-03-05T22:52:42.721Z,5.93
2023-03-05T22:54:44.703Z,6.15
2023-03-05T22:56:46.607Z,5.95
2023-03-05T22:58:48.930Z,5.90
2023-03-05T23:00:50.921Z,5.95
2023-03-05T23:02:53.649Z,5.72
2023-03-05T23:05:00.649Z,5.93
2023-03-05T23:07:02.587Z,5.50
2023-03-05T23:09:04.720Z,5.82
2023-03-05T23:11:15.221Z,5.93
2023-03-05T23:13:32.782Z,5.43
2023-03-05T23:15:37.888Z,5.55
2023-03-05T23:17:40.044Z,5.55
2023-03-05T23:19:42.183Z,5.70
2023-03-05T23:21:48.981Z,5.60
2023-03-05T23:23:53.232Z,5.95
2023-03-05T23:25:55.251Z,5.43
2023-03-05T23:27:58.414Z,4.95
2023-03-05T23:30:16.452Z,5.85
2023-03-05T23:32:18.704Z,5.57
2023-03-05T23:34:20.729Z,5.25
2023-03-05T23:36:25.540Z,5.75
2023-03-05T23:38:29.741Z,5.63
2023-03-05T23:40:34.816Z,5.78
2023-03-05T23:42:38.454Z,6.15
2023-03-05T23:44:40.596Z,5.03
2023-03-05T23:46:42.932Z,5.15
2023-03-05T23:48:45.175Z,5.82
2023-03-05T23:50:48.990Z,5.57
2023-03-05T23:52:52.315Z,5.82
2023-03-05T23:54:55.301Z,5.95
2023-03-05T23:56:57.268Z,5.68
2023-03-05T23:59:00.762Z,5.30
